createdAt,value
2018-05-13T00:00:51.380Z,7.50
2018-05-13T00:01:51.598Z,7.90
2018-05-13T00:02:51.591Z,7.80
2018-05-13T00:03:51.602Z,7.70
2018-05-13T00:04:51.607Z,7.60
2018-05-13T00:05:51.403Z,7.90
2018-05-13T00:06:51.410Z,8.10
2018-05-13T00:07:51.407Z,7.80
2018-05-13T00:08:51.420Z,7.70
2018-05-13T00:09:51.598Z,7.60
2018-05-13T00:10:51.410Z,8.20
2018-05-13T00:11:51.408Z,8.00
2018-05-13T00:12:51.424Z,8.10
2018-05-13T00:13:51.401Z,8.50
2018-05-13T00:14:51.409Z,7.50
2018-05-13T00:15:51.401Z,7.80
2018-05-13T00:16:51.604Z,7.20
2018-05-13T00:17:51.422Z,7.60
2018-05-13T00:18:51.407Z,8.30
2018-05-13T00:19:51.442Z,7.70
2018-05-13T00:20:51.628Z,8.10
2018-05-13T00:21:51.408Z,7.70
2018-05-13T00:22:51.435Z,8.20
2018-05-13T00:23:51.425Z,7.70
2018-05-13T00:24:51.417Z,8.10
2018-05-13T00:25:51.432Z,8.30
2018-05-13T00:26:51.420Z,8.70
2018-05-13T00:27:51.638Z,9.10
2018-05-13T00:28:51.432Z,8.30
2018-05-13T00:29:51.435Z,7.90
2018-05-13T00:30:51.424Z,8.70
2018-05-13T00:31:51.435Z,8.20
2018-05-13T00:32:51.425Z,8.60
2018-05-13T00:33:51.431Z,8.90
2018-05-13T00:34:51.429Z,9.00
2018-05-13T00:35:51.430Z,9.20
2018-05-13T00:36:51.433Z,9.70
2018-05-13T00:37:51.443Z,9.10
2018-05-13T00:38:51.433Z,9.50
2018-05-13T00:39:51.439Z,8.90
2018-05-13T00:40:51.436Z,8.50
2018-05-13T00:41:51.437Z,9.00
2018-05-13T00:42:51.451Z,8.80
2018-05-13T00:43:51.441Z,9.00
2018-05-13T00:44:51.470Z,9.30
2018-05-13T00:45:51.444Z,9.80
2018-05-13T00:46:51.443Z,8.80
2018-05-13T00:47:51.655Z,9.10
2018-05-13T00:48:51.456Z,9.50
2018-05-13T00:49:51.448Z,9.30
2018-05-13T00:50:51.655Z,9.70
2018-05-13T00:51:51.459Z,8.80
2018-05-13T00:52:51.671Z,8.90
2018-05-13T00:53:51.453Z,9.20
2018-05-13T00:54:51.656Z,9.30
2018-05-13T00:55:51.469Z,9.60
2018-05-13T00:56:51.660Z,10.40
2018-05-13T00:57:51.660Z,10.10
2018-05-13T00:58:51.663Z,9.80
2018-05-13T00:59:51.472Z,9.90
2018-05-13T01:00:51.674Z,9.80
2018-05-13T01:01:51.477Z,9.90
2018-05-13T01:02:51.494Z,9.40
2018-05-13T01:03:51.472Z,10.20
2018-05-13T01:04:51.464Z,10.10
2018-05-13T01:05:51.668Z,10.10
2018-05-13T01:06:51.480Z,10.20
2018-05-13T01:07:51.467Z,9.50
2018-05-13T01:08:51.482Z,9.40
2018-05-13T01:09:51.484Z,9.20
2018-05-13T01:10:51.482Z,9.00
2018-05-13T01:11:51.475Z,9.70
2018-05-13T01:12:51.474Z,9.60
2018-05-13T01:13:51.477Z,9.60
2018-05-13T01:14:51.485Z,9.70
2018-05-13T01:15:51.478Z,9.70
2018-05-13T01:16:51.480Z,9.20
2018-05-13T01:17:51.484Z,9.70
2018-05-13T01:18:51.481Z,9.60
2018-05-13T01:19:51.684Z,10.10
2018-05-13T01:20:51.498Z,10.20
2018-05-13T01:21:51.496Z,9.70
2018-05-13T01:22:51.488Z,10.60
2018-05-13T01:23:51.486Z,10.80
2018-05-13T01:24:51.499Z,9.40
2018-05-13T01:25:51.499Z,9.30
2018-05-13T01:26:51.496Z,10.00
2018-05-13T01:27:51.500Z,9.70
2018-05-13T01:28:51.498Z,9.80
2018-05-13T01:29:51.695Z,10.20
2018-05-13T01:30:51.696Z,10.60
2018-05-13T01:31:51.493Z,10.70
2018-05-13T01:32:51.697Z,9.90
2018-05-13T01:33:51.501Z,10.30
2018-05-13T01:34:51.702Z,10.20
2018-05-13T01:35:51.497Z,8.90
2018-05-13T01:36:51.498Z,9.50
2018-05-13T01:37:51.504Z,9.60
2018-05-13T01:38:51.716Z,9.30
2018-05-13T01:39:51.503Z,9.30
2018-05-13T01:40:51.521Z,10.00
2018-05-13T01:41:51.515Z,8.60
2018-05-13T01:42:51.506Z,8.90
2018-05-13T01:43:51.509Z,9.00
2018-05-13T01:44:51.539Z,9.20
2018-05-13T01:45:51.520Z,9.10
2018-05-13T01:46:51.523Z,9.60
2018-05-13T01:47:51.512Z,9.40
2018-05-13T01:48:51.540Z,8.90
2018-05-13T01:49:51.527Z,9.40
2018-05-13T01:50:51.516Z,9.60
2018-05-13T01:51:51.518Z,9.80
2018-05-13T01:52:51.518Z,9.60
2018-05-13T01:53:51.518Z,9.30
2018-05-13T01:54:51.733Z,8.90
2018-05-13T01:55:51.533Z,9.80
2018-05-13T01:56:51.523Z,9.30
2018-05-13T01:57:51.522Z,9.50
2018-05-13T01:58:51.524Z,9.90
2018-05-13T01:59:51.523Z,10.30
2018-05-13T02:00:51.524Z,9.70
2018-05-13T02:01:51.537Z,9.80
2018-05-13T02:02:51.537Z,10.40
2018-05-13T02:03:51.528Z,10.60
2018-05-13T02:04:51.528Z,10.60
2018-05-13T02:05:51.529Z,11.00
2018-05-13T02:06:51.530Z,11.40
2018-05-13T02:07:51.531Z,10.50
2018-05-13T02:08:51.532Z,11.70
2018-05-13T02:09:51.534Z,11.00
2018-05-13T02:10:51.535Z,11.60
2018-05-13T02:11:51.537Z,11.30
2018-05-13T02:12:51.538Z,11.80
2018-05-13T02:13:51.538Z,11.30
2018-05-13T02:14:51.542Z,10.70
2018-05-13T02:15:51.539Z,11.00
2018-05-13T02:16:51.555Z,10.80
2018-05-13T02:17:51.555Z,11.20
2018-05-13T02:18:51.747Z,10.90
2018-05-13T02:19:51.554Z,11.30
2018-05-13T02:20:51.747Z,10.40
2018-05-13T02:21:51.547Z,10.40
2018-05-13T02:22:51.765Z,10.60
2018-05-13T02:23:51.547Z,10.30
2018-05-13T02:24:51.552Z,11.20
2018-05-13T02:25:51.755Z,11.60
2018-05-13T02:26:51.552Z,11.10
2018-05-13T02:27:51.549Z,11.30
2018-05-13T02:28:51.759Z,11.20
2018-05-13T02:29:51.569Z,11.00
2018-05-13T02:30:51.566Z,11.10
2018-05-13T02:31:51.569Z,10.80
2018-05-13T02:32:51.555Z,10.50
2018-05-13T02:33:51.590Z,10.90
2018-05-13T02:34:51.558Z,10.60
2018-05-13T02:35:51.561Z,11.10
2018-05-13T02:36:51.559Z,10.20
2018-05-13T02:37:51.563Z,10.60
2018-05-13T02:38:51.566Z,11.20
2018-05-13T02:39:51.584Z,11.40
2018-05-13T02:40:51.563Z,11.60
2018-05-13T02:41:51.565Z,11.60
2018-05-13T02:42:51.565Z,11.00
2018-05-13T02:43:51.570Z,11.20
2018-05-13T02:44:51.579Z,12.50
2018-05-13T02:45:51.587Z,13.90
2018-05-13T02:46:51.584Z,12.50
2018-05-13T02:47:51.568Z,12.00
2018-05-13T02:48:51.798Z,12.00
2018-05-13T02:49:51.584Z,11.90
2018-05-13T02:50:51.572Z,12.20
2018-05-13T02:51:51.581Z,12.80
2018-05-13T02:52:51.575Z,12.40
2018-05-13T02:53:51.585Z,12.90
2018-05-13T02:54:51.816Z,12.60
2018-05-13T02:55:51.578Z,12.60
2018-05-13T02:56:51.792Z,12.40
2018-05-13T02:57:51.586Z,12.90
2018-05-13T02:58:51.781Z,12.20
2018-05-13T02:59:51.581Z,12.20
2018-05-13T03:00:51.579Z,11.60
2018-05-13T03:01:51.595Z,11.80
2018-05-13T03:02:51.784Z,11.80
2018-05-13T03:03:51.585Z,12.00
2018-05-13T03:04:51.585Z,12.40
2018-05-13T03:05:51.586Z,11.60
2018-05-13T03:06:51.609Z,12.10
2018-05-13T03:07:51.798Z,12.40
2018-05-13T03:08:51.604Z,12.40
2018-05-13T03:09:51.588Z,12.50
2018-05-13T03:10:51.611Z,12.90
2018-05-13T03:11:51.600Z,12.50
2018-05-13T03:12:51.588Z,13.30
2018-05-13T03:13:51.796Z,11.60
2018-05-13T03:14:51.799Z,12.50
2018-05-13T03:15:51.811Z,12.50
2018-05-13T03:16:51.613Z,11.70
2018-05-13T03:17:51.595Z,12.00
2018-05-13T03:18:51.601Z,12.30
2018-05-13T03:19:51.798Z,12.60
2018-05-13T03:20:51.609Z,11.90
2018-05-13T03:21:51.597Z,12.00
2018-05-13T03:22:51.600Z,11.20
2018-05-13T03:23:51.598Z,12.50
2018-05-13T03:24:51.630Z,11.70
2018-05-13T03:25:51.805Z,11.70
2018-05-13T03:26:51.603Z,11.40
2018-05-13T03:27:51.603Z,12.40
2018-05-13T03:28:51.614Z,11.80
2018-05-13T03:29:51.604Z,13.00
2018-05-13T03:30:51.615Z,12.70
2018-05-13T03:31:51.605Z,11.80
2018-05-13T03:32:51.606Z,12.70
2018-05-13T03:33:51.610Z,12.30
2018-05-13T03:34:51.609Z,13.10
2018-05-13T03:35:51.609Z,12.50
2018-05-13T03:36:51.627Z,13.30
2018-05-13T03:37:51.614Z,13.90
2018-05-13T03:38:51.628Z,13.10
2018-05-13T03:39:51.626Z,14.30
2018-05-13T03:40:51.621Z,14.10
2018-05-13T03:41:51.619Z,15.40
2018-05-13T03:42:51.619Z,16.90
2018-05-13T03:43:51.616Z,16.80
2018-05-13T03:44:51.630Z,15.70
2018-05-13T03:45:51.622Z,17.00
2018-05-13T03:46:51.640Z,16.10
2018-05-13T03:47:51.837Z,15.60
2018-05-13T03:48:51.637Z,16.90
2018-05-13T03:49:51.836Z,17.40
2018-05-13T03:50:51.635Z,17.10
2018-05-13T03:51:51.639Z,15.90
2018-05-13T03:52:51.630Z,17.20
2018-05-13T03:53:51.676Z,16.70
2018-05-13T03:54:51.643Z,17.50
2018-05-13T03:55:51.633Z,16.50
2018-05-13T03:56:51.843Z,16.50
2018-05-13T03:57:51.631Z,16.40
2018-05-13T03:58:51.632Z,17.10
2018-05-13T03:59:51.633Z,17.40
2018-05-13T04:00:51.653Z,16.80
2018-05-13T04:01:51.648Z,16.60
2018-05-13T04:02:51.640Z,16.40
2018-05-13T04:03:51.640Z,17.90
2018-05-13T04:04:51.640Z,17.50
2018-05-13T04:05:51.642Z,16.70
2018-05-13T04:06:51.655Z,17.20
2018-05-13T04:07:51.656Z,16.90
2018-05-13T04:08:51.645Z,16.50
2018-05-13T04:09:51.649Z,15.70
2018-05-13T04:10:51.651Z,16.30
2018-05-13T04:11:51.659Z,15.40
2018-05-13T04:12:51.654Z,15.70
2018-05-13T04:13:51.668Z,16.60
2018-05-13T04:14:51.662Z,16.30
2018-05-13T04:15:51.667Z,16.70
2018-05-13T04:16:51.660Z,16.30
2018-05-13T04:17:51.659Z,17.30
2018-05-13T04:18:51.661Z,16.70
2018-05-13T04:19:51.675Z,17.60
2018-05-13T04:20:51.664Z,17.50
2018-05-13T04:21:51.732Z,17.50
2018-05-13T04:22:51.665Z,17.80
2018-05-13T04:23:51.693Z,17.60
2018-05-13T04:24:51.677Z,17.20
2018-05-13T04:25:51.686Z,16.90
2018-05-13T04:26:51.671Z,16.80
2018-05-13T04:27:51.685Z,16.60
2018-05-13T04:28:51.684Z,16.20
2018-05-13T04:29:51.686Z,15.50
2018-05-13T04:30:51.686Z,17.20
2018-05-13T04:31:51.673Z,16.80
2018-05-13T04:32:51.676Z,16.70
2018-05-13T04:33:51.879Z,16.60
2018-05-13T04:34:51.679Z,16.30
2018-05-13T04:35:51.692Z,17.70
2018-05-13T04:36:51.684Z,16.80
2018-05-13T04:37:51.684Z,17.30
2018-05-13T04:38:51.885Z,17.10
2018-05-13T04:39:51.683Z,16.70
2018-05-13T04:40:51.696Z,18.00
2018-05-13T04:41:51.687Z,17.50
2018-05-13T04:42:51.905Z,18.20
2018-05-13T04:43:51.703Z,18.10
2018-05-13T04:44:51.893Z,17.80
2018-05-13T04:45:51.893Z,17.80
2018-05-13T04:46:51.692Z,18.20
2018-05-13T04:47:51.906Z,17.00
2018-05-13T04:48:51.693Z,18.90
2018-05-13T04:49:51.710Z,17.40
2018-05-13T04:50:51.695Z,17.60
2018-05-13T04:51:51.699Z,17.00
2018-05-13T04:52:51.699Z,16.80
2018-05-13T04:53:51.711Z,15.80
2018-05-13T04:54:51.718Z,16.50
2018-05-13T04:55:51.701Z,17.00
2018-05-13T04:56:51.719Z,16.10
2018-05-13T04:57:51.706Z,17.00
2018-05-13T04:58:51.728Z,16.50
2018-05-13T04:59:51.721Z,17.10
2018-05-13T05:00:51.705Z,15.60
2018-05-13T05:01:51.707Z,17.00
2018-05-13T05:02:51.713Z,16.90
2018-05-13T05:03:51.713Z,16.50
2018-05-13T05:04:51.727Z,17.30
2018-05-13T05:05:51.713Z,17.10
2018-05-13T05:06:51.729Z,17.00
2018-05-13T05:07:51.715Z,18.50
2018-05-13T05:08:51.742Z,17.50
2018-05-13T05:09:51.734Z,18.30
2018-05-13T05:10:51.731Z,18.30
2018-05-13T05:11:51.925Z,17.60
2018-05-13T05:12:51.926Z,17.30
2018-05-13T05:13:51.731Z,18.00
2018-05-13T05:14:51.725Z,17.80
2018-05-13T05:15:51.737Z,18.60
2018-05-13T05:16:51.738Z,18.80
2018-05-13T05:17:51.742Z,18.40
2018-05-13T05:18:51.731Z,19.10
2018-05-13T05:19:51.730Z,19.20
2018-05-13T05:20:51.730Z,19.30
2018-05-13T05:21:51.740Z,19.50
2018-05-13T05:22:51.736Z,20.10
2018-05-13T05:23:51.735Z,19.30
2018-05-13T05:24:51.738Z,18.10
2018-05-13T05:25:51.738Z,18.80
2018-05-13T05:26:51.766Z,18.50
2018-05-13T05:27:51.846Z,18.70
2018-05-13T05:28:51.740Z,19.10
2018-05-13T05:29:51.953Z,18.20
2018-05-13T05:30:51.752Z,18.80
2018-05-13T05:31:51.743Z,19.00
2018-05-13T05:32:51.947Z,19.30
2018-05-13T05:33:51.770Z,19.40
2018-05-13T05:34:51.775Z,19.20
2018-05-13T05:35:51.856Z,18.70
2018-05-13T05:36:51.758Z,19.60
2018-05-13T05:37:51.750Z,18.40
2018-05-13T05:38:51.751Z,19.30
2018-05-13T05:39:51.755Z,18.10
2018-05-13T05:40:51.752Z,18.30
2018-05-13T05:41:51.757Z,18.00
2018-05-13T05:42:51.756Z,17.40
2018-05-13T05:43:51.777Z,17.80
2018-05-13T05:44:51.760Z,18.30
2018-05-13T05:45:51.762Z,17.20
2018-05-13T05:46:51.761Z,17.60
2018-05-13T05:47:51.777Z,18.40
2018-05-13T05:48:51.780Z,18.00
2018-05-13T05:49:51.778Z,18.60
2018-05-13T05:50:51.973Z,18.20
2018-05-13T05:51:51.795Z,18.00
2018-05-13T05:52:51.773Z,18.20
2018-05-13T05:53:51.785Z,17.60
2018-05-13T05:54:51.785Z,18.20
2018-05-13T05:55:51.775Z,17.30
2018-05-13T05:56:51.779Z,16.70
2018-05-13T05:57:51.790Z,17.90
2018-05-13T05:58:51.793Z,16.40
2018-05-13T05:59:51.794Z,17.30
2018-05-13T06:00:51.984Z,17.80
2018-05-13T06:01:51.785Z,18.20
2018-05-13T06:02:51.799Z,17.50
2018-05-13T06:03:52.003Z,16.90
2018-05-13T06:04:51.788Z,17.30
2018-05-13T06:05:51.801Z,16.70
2018-05-13T06:06:51.824Z,16.10
2018-05-13T06:07:51.808Z,16.40
2018-05-13T06:08:51.798Z,16.40
2018-05-13T06:09:51.809Z,16.70
2018-05-13T06:10:51.814Z,16.70
2018-05-13T06:11:51.831Z,17.40
2018-05-13T06:12:51.804Z,16.90
2018-05-13T06:13:51.819Z,16.70
2018-05-13T06:14:51.808Z,17.70
2018-05-13T06:15:51.809Z,16.80
2018-05-13T06:16:51.820Z,16.90
2018-05-13T06:17:51.815Z,15.90
2018-05-13T06:18:51.827Z,17.10
2018-05-13T06:19:51.827Z,16.30
2018-05-13T06:20:51.818Z,16.30
2018-05-13T06:21:51.826Z,16.20
2018-05-13T06:22:51.844Z,16.40
2018-05-13T06:23:51.836Z,15.80
2018-05-13T06:24:51.836Z,17.60
2018-05-13T06:25:51.845Z,17.20
2018-05-13T06:26:51.830Z,16.70
2018-05-13T06:27:51.834Z,17.30
2018-05-13T06:28:51.836Z,17.10
2018-05-13T06:29:51.859Z,17.00
2018-05-13T06:30:51.855Z,17.10
2018-05-13T06:31:51.860Z,17.20
2018-05-13T06:32:51.841Z,17.00
2018-05-13T06:33:51.869Z,17.00
2018-05-13T06:34:51.859Z,16.10
2018-05-13T06:35:51.846Z,15.60
2018-05-13T06:36:51.879Z,15.90
2018-05-13T06:37:51.863Z,17.00
2018-05-13T06:38:51.859Z,16.10
2018-05-13T06:39:51.853Z,16.10
2018-05-13T06:40:51.873Z,16.20
2018-05-13T06:41:51.868Z,14.80
2018-05-13T06:42:51.888Z,16.00
2018-05-13T06:43:51.877Z,15.50
2018-05-13T06:44:51.875Z,15.10
2018-05-13T06:45:51.881Z,15.30
2018-05-13T06:46:51.892Z,15.90
2018-05-13T06:47:52.075Z,15.40
2018-05-13T06:48:51.885Z,15.20
2018-05-13T06:49:51.890Z,16.30
2018-05-13T06:50:52.132Z,16.00
2018-05-13T06:51:51.888Z,15.80
2018-05-13T06:52:51.890Z,15.40
2018-05-13T06:53:51.883Z,16.30
2018-05-13T06:54:52.179Z,15.80
2018-05-13T06:55:51.909Z,16.00
2018-05-13T06:56:51.893Z,15.20
2018-05-13T06:57:51.905Z,15.40
2018-05-13T06:58:51.911Z,15.40
2018-05-13T06:59:51.909Z,15.80
2018-05-13T07:00:51.895Z,15.60
2018-05-13T07:01:51.914Z,15.50
2018-05-13T07:02:51.957Z,16.40
2018-05-13T07:03:51.902Z,16.00
2018-05-13T07:04:51.922Z,16.90
2018-05-13T07:05:51.918Z,16.50
2018-05-13T07:06:51.909Z,17.10
2018-05-13T07:07:51.921Z,17.60
2018-05-13T07:08:51.911Z,17.40
2018-05-13T07:09:51.915Z,17.60
2018-05-13T07:10:52.121Z,17.00
2018-05-13T07:11:51.918Z,17.50
2018-05-13T07:12:51.919Z,17.00
2018-05-13T07:13:51.948Z,17.10
2018-05-13T07:14:51.924Z,17.60
2018-05-13T07:15:52.128Z,17.60
2018-05-13T07:16:51.948Z,17.20
2018-05-13T07:17:52.147Z,17.60
2018-05-13T07:18:52.155Z,18.40
2018-05-13T07:19:51.966Z,18.20
2018-05-13T07:20:51.949Z,18.90
2018-05-13T07:21:51.948Z,18.60
2018-05-13T07:22:51.943Z,19.20
2018-05-13T07:23:52.168Z,19.30
2018-05-13T07:24:51.947Z,20.20
2018-05-13T07:25:51.948Z,20.60
2018-05-13T07:26:51.950Z,21.50
2018-05-13T07:27:51.962Z,20.10
2018-05-13T07:28:51.954Z,21.00
2018-05-13T07:29:52.003Z,20.00
2018-05-13T07:30:51.954Z,19.70
2018-05-13T07:31:51.966Z,20.20
2018-05-13T07:32:51.957Z,21.10
2018-05-13T07:33:51.973Z,21.00
2018-05-13T07:34:51.961Z,21.30
2018-05-13T07:35:51.979Z,21.40
2018-05-13T07:36:51.976Z,21.70
2018-05-13T07:37:51.968Z,22.00
2018-05-13T07:38:51.982Z,21.50
2018-05-13T07:39:51.983Z,22.60
2018-05-13T07:40:51.985Z,22.60
2018-05-13T07:41:52.002Z,22.60
2018-05-13T07:42:51.988Z,22.80
2018-05-13T07:43:52.003Z,22.60
2018-05-13T07:44:51.986Z,23.00
2018-05-13T07:45:52.008Z,23.60
2018-05-13T07:46:51.996Z,24.20
2018-05-13T07:47:51.997Z,24.70
2018-05-13T07:48:51.984Z,24.80
2018-05-13T07:49:52.015Z,25.40
2018-05-13T07:50:52.058Z,24.60
2018-05-13T07:51:51.989Z,24.70
2018-05-13T07:52:51.995Z,24.80
2018-05-13T07:53:52.022Z,24.70
2018-05-13T07:54:51.993Z,24.70
2018-05-13T07:55:52.008Z,24.20
2018-05-13T07:56:51.997Z,24.50
2018-05-13T07:57:52.020Z,23.90
2018-05-13T07:58:52.018Z,24.60
2018-05-13T07:59:52.003Z,24.60
2018-05-13T08:00:52.007Z,24.60
2018-05-13T08:01:52.020Z,24.70
2018-05-13T08:02:52.011Z,24.80
2018-05-13T08:03:52.026Z,25.20
2018-05-13T08:04:52.014Z,25.50
2018-05-13T08:05:52.014Z,26.70
2018-05-13T08:06:52.028Z,25.80
2018-05-13T08:07:52.018Z,26.00
2018-05-13T08:08:52.021Z,27.00
2018-05-13T08:09:52.048Z,27.20
2018-05-13T08:10:52.026Z,28.00
2018-05-13T08:11:52.025Z,29.60
2018-05-13T08:12:52.030Z,28.40
2018-05-13T08:13:52.043Z,28.60
2018-05-13T08:14:52.060Z,29.90
2018-05-13T08:15:52.043Z,30.60
2018-05-13T08:16:52.033Z,30.20
2018-05-13T08:17:52.060Z,27.90
2018-05-13T08:18:52.060Z,30.00
2018-05-13T08:19:52.268Z,31.50
2018-05-13T08:20:52.039Z,32.90
2018-05-13T08:21:52.038Z,32.60
2018-05-13T08:22:52.041Z,30.40
2018-05-13T08:23:52.054Z,29.40
2018-05-13T08:24:52.044Z,32.20
2018-05-13T08:25:52.048Z,33.10
2018-05-13T08:26:52.049Z,34.50
2018-05-13T08:27:52.055Z,34.40
2018-05-13T08:28:52.049Z,34.20
2018-05-13T08:29:52.055Z,36.60
2018-05-13T08:30:52.068Z,38.50
2018-05-13T08:31:52.056Z,41.80
2018-05-13T08:32:52.058Z,44.80
2018-05-13T08:33:52.089Z,46.90
2018-05-13T08:34:52.075Z,50.00
2018-05-13T08:35:52.076Z,49.30
2018-05-13T08:36:52.075Z,50.90
2018-05-13T08:37:52.071Z,52.40
2018-05-13T08:38:52.082Z,51.70
2018-05-13T08:39:52.081Z,54.90
2018-05-13T08:40:52.074Z,52.40
2018-05-13T08:41:52.091Z,52.20
2018-05-13T08:42:52.088Z,49.50
2018-05-13T08:43:52.091Z,52.10
2018-05-13T08:44:52.094Z,51.50
2018-05-13T08:45:52.084Z,52.80
2018-05-13T08:46:52.085Z,53.30
2018-05-13T08:47:52.098Z,51.90
2018-05-13T08:48:52.092Z,52.00
2018-05-13T08:49:52.092Z,52.20
2018-05-13T08:50:52.092Z,55.00
2018-05-13T08:51:52.096Z,57.80
2018-05-13T08:52:52.093Z,60.50
2018-05-13T08:53:52.108Z,61.40
2018-05-13T08:54:52.117Z,62.50
2018-05-13T08:55:52.110Z,64.20
2018-05-13T08:56:52.112Z,64.50
2018-05-13T08:57:52.115Z,66.50
2018-05-13T08:58:52.106Z,66.80
2018-05-13T08:59:52.104Z,67.20
2018-05-13T09:00:52.115Z,72.10
2018-05-13T09:01:52.112Z,69.60
2018-05-13T09:02:52.112Z,71.20
2018-05-13T09:03:52.111Z,74.90
2018-05-13T09:04:52.124Z,77.10
2018-05-13T09:05:52.115Z,75.20
2018-05-13T09:06:52.126Z,73.40
2018-05-13T09:07:52.131Z,76.70
2018-05-13T09:08:52.119Z,74.60
2018-05-13T09:09:52.146Z,76.80
2018-05-13T09:10:52.135Z,76.50
2018-05-13T09:11:52.120Z,75.80
2018-05-13T09:12:52.125Z,82.00
2018-05-13T09:13:52.125Z,81.70
2018-05-13T09:14:52.135Z,77.90
2018-05-13T09:15:52.138Z,84.80
2018-05-13T09:16:52.135Z,84.20
2018-05-13T09:17:52.142Z,89.70
2018-05-13T09:18:52.133Z,82.00
2018-05-13T09:19:52.131Z,80.00
2018-05-13T09:20:52.168Z,81.20
2018-05-13T09:21:52.162Z,82.30
2018-05-13T09:22:52.153Z,83.30
2018-05-13T09:23:52.136Z,87.50
2018-05-13T09:24:52.150Z,86.30
2018-05-13T09:25:52.142Z,89.00
2018-05-13T09:26:52.154Z,90.60
2018-05-13T09:27:52.143Z,91.70
2018-05-13T09:28:52.145Z,92.60
2018-05-13T09:29:52.157Z,97.80
2018-05-13T09:30:52.160Z,94.30
2018-05-13T09:31:52.149Z,94.10
2018-05-13T09:32:52.172Z,96.30
2018-05-13T09:33:52.168Z,101.90
2018-05-13T09:34:52.155Z,102.20
2018-05-13T09:35:52.155Z,103.20
2018-05-13T09:36:52.153Z,105.80
2018-05-13T09:37:52.157Z,102.40
2018-05-13T09:38:52.166Z,102.60
2018-05-13T09:39:52.161Z,103.00
2018-05-13T09:40:52.169Z,96.70
2018-05-13T09:41:52.185Z,100.50
2018-05-13T09:42:52.165Z,99.20
2018-05-13T09:43:52.177Z,102.60
2018-05-13T09:44:52.177Z,105.50
2018-05-13T09:45:52.255Z,110.30
2018-05-13T09:46:52.166Z,112.30
2018-05-13T09:47:52.167Z,112.70
2018-05-13T09:48:52.172Z,118.60
2018-05-13T09:49:52.187Z,117.30
2018-05-13T09:50:52.171Z,119.80
2018-05-13T09:51:52.172Z,117.10
2018-05-13T09:52:52.173Z,118.00
2018-05-13T09:53:52.194Z,121.50
2018-05-13T09:54:52.217Z,121.90
2018-05-13T09:55:52.180Z,129.50
2018-05-13T09:56:52.179Z,128.40
2018-05-13T09:57:52.181Z,129.50
2018-05-13T09:58:52.185Z,127.60
2018-05-13T09:59:52.192Z,132.10
2018-05-13T10:00:52.182Z,138.80
2018-05-13T10:01:52.185Z,134.50
2018-05-13T10:02:52.210Z,130.40
2018-05-13T10:03:52.209Z,128.70
2018-05-13T10:04:52.204Z,133.10
2018-05-13T10:05:52.204Z,136.10
2018-05-13T10:06:52.188Z,136.10
2018-05-13T10:07:52.203Z,137.40
2018-05-13T10:08:52.192Z,133.40
2018-05-13T10:09:52.203Z,140.90
2018-05-13T10:10:52.220Z,138.50
2018-05-13T10:11:52.198Z,146.80
2018-05-13T10:12:52.195Z,153.60
2018-05-13T10:13:52.419Z,155.40
2018-05-13T10:14:52.415Z,155.60
2018-05-13T10:15:52.212Z,158.50
2018-05-13T10:16:52.217Z,158.50
2018-05-13T10:17:52.200Z,158.80
2018-05-13T10:18:52.202Z,162.60
2018-05-13T10:19:52.205Z,161.40
2018-05-13T10:20:52.205Z,158.70
2018-05-13T10:21:52.233Z,161.60
2018-05-13T10:22:52.215Z,158.50
2018-05-13T10:23:52.207Z,169.20
2018-05-13T10:24:52.232Z,168.60
2018-05-13T10:25:52.224Z,165.60
2018-05-13T10:26:52.211Z,178.40
2018-05-13T10:27:52.208Z,171.80
2018-05-13T10:28:52.210Z,170.40
2018-05-13T10:29:52.213Z,168.90
2018-05-13T10:30:52.225Z,165.70
2018-05-13T10:31:52.216Z,164.60
2018-05-13T10:32:52.226Z,173.30
2018-05-13T10:33:52.230Z,175.80
2018-05-13T10:34:52.216Z,165.60
2018-05-13T10:35:52.228Z,171.40
2018-05-13T10:36:52.227Z,172.70
2018-05-13T10:37:52.221Z,181.70
2018-05-13T10:38:52.250Z,180.10
2018-05-13T10:39:52.231Z,179.20
2018-05-13T10:40:52.254Z,179.10
2018-05-13T10:41:52.256Z,179.00
2018-05-13T10:42:52.239Z,176.40
2018-05-13T10:43:52.234Z,173.40
2018-05-13T10:44:52.229Z,177.90
2018-05-13T10:45:52.229Z,181.20
2018-05-13T10:46:52.255Z,170.10
2018-05-13T10:47:52.244Z,176.40
2018-05-13T10:48:52.233Z,171.20
2018-05-13T10:49:52.237Z,177.40
2018-05-13T10:50:52.248Z,178.50
2018-05-13T10:51:52.233Z,173.20
2018-05-13T10:52:52.235Z,177.50
2018-05-13T10:53:52.238Z,169.20
2018-05-13T10:54:52.240Z,171.20
2018-05-13T10:55:52.265Z,173.60
2018-05-13T10:56:52.238Z,171.70
2018-05-13T10:57:52.335Z,177.50
2018-05-13T10:58:52.246Z,175.50
2018-05-13T10:59:52.243Z,182.20
2018-05-13T11:00:52.254Z,190.10
2018-05-13T11:01:52.256Z,188.30
2018-05-13T11:02:52.243Z,192.50
2018-05-13T11:03:52.463Z,196.80
2018-05-13T11:04:52.315Z,201.00
2018-05-13T11:05:52.262Z,206.20
2018-05-13T11:06:52.271Z,209.30
2018-05-13T11:07:52.261Z,205.70
2018-05-13T11:08:52.273Z,213.30
2018-05-13T11:09:52.263Z,211.80
2018-05-13T11:10:52.252Z,208.30
2018-05-13T11:11:52.250Z,211.50
2018-05-13T11:12:52.252Z,208.50
2018-05-13T11:13:52.250Z,212.30
2018-05-13T11:14:52.267Z,219.10
2018-05-13T11:15:52.274Z,218.10
2018-05-13T11:16:52.470Z,211.90
2018-05-13T11:17:52.286Z,222.90
2018-05-13T11:18:52.280Z,227.20
2018-05-13T11:19:52.267Z,223.50
2018-05-13T11:20:52.286Z,216.30
2018-05-13T11:21:52.258Z,207.30
2018-05-13T11:22:52.256Z,214.70
2018-05-13T11:23:52.257Z,220.80
2018-05-13T11:24:52.286Z,208.90
2018-05-13T11:25:52.292Z,209.40
2018-05-13T11:26:52.278Z,207.10
2018-05-13T11:27:52.273Z,206.20
2018-05-13T11:28:52.267Z,208.10
2018-05-13T11:29:52.261Z,211.40
2018-05-13T11:30:52.264Z,211.70
2018-05-13T11:31:52.280Z,216.00
2018-05-13T11:32:52.262Z,202.60
2018-05-13T11:33:52.305Z,213.30
2018-05-13T11:34:52.285Z,202.10
2018-05-13T11:35:52.262Z,206.60
2018-05-13T11:36:52.280Z,200.90
2018-05-13T11:37:52.265Z,202.60
2018-05-13T11:38:52.276Z,187.40
2018-05-13T11:39:52.287Z,193.90
2018-05-13T11:40:52.284Z,178.20
2018-05-13T11:41:52.279Z,187.10
2018-05-13T11:42:52.282Z,173.40
2018-05-13T11:43:52.279Z,169.10
2018-05-13T11:44:52.270Z,163.70
2018-05-13T11:45:52.284Z,166.10
2018-05-13T11:46:52.279Z,163.50
2018-05-13T11:47:52.294Z,153.70
2018-05-13T11:48:52.286Z,163.70
2018-05-13T11:49:52.282Z,157.20
2018-05-13T11:50:52.274Z,158.40
2018-05-13T11:51:52.274Z,146.90
2018-05-13T11:52:52.276Z,147.10
2018-05-13T11:53:52.272Z,148.30
2018-05-13T11:54:52.280Z,149.60
2018-05-13T11:55:52.277Z,150.10
2018-05-13T11:56:52.274Z,150.70
2018-05-13T11:57:52.286Z,152.00
2018-05-13T11:58:52.276Z,156.80
2018-05-13T11:59:52.276Z,156.20
2018-05-13T12:00:52.281Z,152.90
2018-05-13T12:01:52.279Z,159.30
2018-05-13T12:02:52.279Z,174.20
2018-05-13T12:03:52.280Z,170.80
2018-05-13T12:04:52.291Z,171.30
2018-05-13T12:05:52.282Z,176.30
2018-05-13T12:06:52.494Z,172.50
2018-05-13T12:07:52.281Z,181.80
2018-05-13T12:08:52.485Z,175.40
2018-05-13T12:09:52.297Z,174.40
2018-05-13T12:10:52.487Z,183.00
2018-05-13T12:11:52.499Z,182.40
2018-05-13T12:12:52.311Z,187.10
2018-05-13T12:13:52.294Z,186.40
2018-05-13T12:14:52.295Z,187.20
2018-05-13T12:15:52.488Z,184.70
2018-05-13T12:16:52.309Z,184.00
2018-05-13T12:17:52.304Z,178.00
2018-05-13T12:18:52.286Z,178.20
2018-05-13T12:19:52.286Z,181.70
2018-05-13T12:20:52.286Z,176.70
2018-05-13T12:21:52.287Z,175.00
2018-05-13T12:22:52.304Z,170.00
2018-05-13T12:23:52.300Z,170.00
2018-05-13T12:24:52.286Z,160.50
2018-05-13T12:25:52.302Z,159.30
2018-05-13T12:26:52.493Z,156.10
2018-05-13T12:27:52.298Z,157.20
2018-05-13T12:28:52.361Z,147.90
2018-05-13T12:29:52.491Z,144.10
2018-05-13T12:30:52.289Z,143.80
2018-05-13T12:31:52.301Z,145.80
2018-05-13T12:32:52.291Z,145.80
2018-05-13T12:33:52.292Z,142.20
2018-05-13T12:34:52.300Z,142.70
2018-05-13T12:35:52.307Z,149.20
2018-05-13T12:36:52.303Z,145.90
2018-05-13T12:37:52.294Z,143.10
2018-05-13T12:38:52.499Z,139.00
2018-05-13T12:39:52.308Z,139.20
2018-05-13T12:40:52.299Z,137.90
2018-05-13T12:41:52.306Z,138.50
2018-05-13T12:42:52.304Z,143.20
2018-05-13T12:43:52.321Z,144.90
2018-05-13T12:44:52.313Z,146.80
2018-05-13T12:45:52.313Z,143.90
2018-05-13T12:46:52.533Z,138.50
2018-05-13T12:47:52.322Z,142.30
2018-05-13T12:48:52.296Z,140.20
2018-05-13T12:49:52.302Z,135.70